Decoded Metar for KHON (HURON in SD, USA) (IATA:HON) | Meteo·Mobile Aviation Weather
aviador You're here:

KHON Decoded Metar

HURON in SD, USA
Report Time2018-08-19 05:02:00
UTC Time2018-08-19 05:28:07
Flight Rules vfr VFR
Wind150° at 11 Gusting to 19 kt
W.Decomp.*RWY 12: 10.1 kt HW 4.3 kt RCW
RWY 17: 9.8 kt HW 5 kt LCW
W.Rank150° ranks 2
Current wind is above 150° avg. (9.3)
Visibility9999 m
Phenomena:N/A
Clouds:Scattered 100 Hf
Expected CloudBase > 1,200 ft AGL from Temp-Dew spread
CeilingNone
Temp23°C (ISA +11)
Dew Point20°C (83% RH)
AAT22.7°C
QNH1011 hPa
Density Alt2,887 ft
Elevation1,280 ft
Report Wrong Elevation
Raw Report
KHON 190502Z AUTO 15011G19KT 10SM SCT100 23/20 A2986=

Extra information for KHON:More info

Metar Taf Metar & Taf Last 4 Metars F.Rules Stats Wind Profile Meteogram Temp Stats Airport Information Weather charts Add Link Nearby VenuesMetar ALERT Operation Metar Decoded Social comments

AIRNAV info for KHON